Arnolds Park, Iowa
Current Conditions -  °F | °C
As of 7:53 PM on Friday 24 Oct 2014 (Local Time) from KSPW Reporting Station
Clear Clear  
Wind Chill: 53°   Ceiling: Unl
Heat Index: 53°   Visibility: 10mi
Dew Point: 43°   Wind: 5mph
Humidity: 69%   Direction: 270°W
Pressure: 29.94"   Gusts: NA
Location:  43.37°N, 95.12°W
Report Text: KSPW 250053Z AUTO 27004KT 10SM CLR 12/06 A2994 RMK AO2 SLP140 T01170061 TSNO
Loading
Personal Weather Stations






























Interactive Weather Map
Tropical Storm Tracking
New forecast layout! Learn more

10-Day Weather Forecast

Advertisements
Track Severe Weather on mobile